createdAt,value
2022-08-19T00:01:07.377Z,17.52
2022-08-19T00:03:37.242Z,14.75
2022-08-19T00:06:07.422Z,16.20
2022-08-19T00:08:39.890Z,15.80
2022-08-19T00:11:18.571Z,17.88
2022-08-19T00:13:56.333Z,15.73
2022-08-19T00:16:27.351Z,16.30
2022-08-19T00:18:57.840Z,16.50
2022-08-19T00:21:29.035Z,16.85
2022-08-19T00:24:02.195Z,15.23
2022-08-19T00:26:32.343Z,16.05
2022-08-19T00:29:02.263Z,16.40
2022-08-19T00:31:32.430Z,15.32
2022-08-19T00:34:02.377Z,15.68
2022-08-19T00:36:33.953Z,17.20
2022-08-19T00:39:07.335Z,14.95
2022-08-19T00:41:37.966Z,16.08
2022-08-19T00:44:11.427Z,14.77
2022-08-19T00:46:45.434Z,15.40
2022-08-19T00:49:31.227Z,14.95
2022-08-19T00:52:04.611Z,15.95
2022-08-19T00:54:37.608Z,16.03
2022-08-19T00:57:11.233Z,15.00
2022-08-19T01:00:01.210Z,20.08
2022-08-19T01:02:33.242Z,18.30
2022-08-19T01:05:04.845Z,16.77
2022-08-19T01:07:37.642Z,15.05
2022-08-19T01:10:14.613Z,19.23
2022-08-19T01:12:44.500Z,18.42
2022-08-19T01:15:17.750Z,14.13
2022-08-19T01:17:48.509Z,18.67
2022-08-19T01:20:21.277Z,15.25
2022-08-19T01:22:56.634Z,16.33
2022-08-19T01:25:30.617Z,18.77
2022-08-19T01:28:06.470Z,19.70
2022-08-19T01:30:44.245Z,16.23
2022-08-19T01:33:14.457Z,19.30
2022-08-19T01:35:45.368Z,17.65
2022-08-19T01:38:25.393Z,20.65
2022-08-19T01:40:55.262Z,16.55
2022-08-19T01:43:25.077Z,15.88
2022-08-19T01:45:55.186Z,18.55
2022-08-19T01:48:25.123Z,18.27
2022-08-19T01:50:54.975Z,18.17
2022-08-19T01:53:30.521Z,20.58
2022-08-19T01:56:03.843Z,19.38
2022-08-19T01:58:37.843Z,19.45
2022-08-19T02:01:08.473Z,19.90
2022-08-19T02:03:38.685Z,19.80
2022-08-19T02:06:09.449Z,19.42
2022-08-19T02:08:43.590Z,23.85
2022-08-19T02:11:24.521Z,19.63
2022-08-19T02:13:54.364Z,20.70
2022-08-19T02:16:24.782Z,18.58
2022-08-19T02:18:55.693Z,22.73
2022-08-19T02:21:26.859Z,21.33
2022-08-19T02:23:59.683Z,22.30
2022-08-19T02:26:30.124Z,23.85
2022-08-19T02:29:01.300Z,20.08
2022-08-19T02:31:31.506Z,20.95
2022-08-19T02:34:01.773Z,22.38
2022-08-19T02:36:31.756Z,22.67
2022-08-19T02:39:01.603Z,21.33
2022-08-19T02:41:34.418Z,23.48
2022-08-19T02:44:29.566Z,23.08
2022-08-19T02:46:57.593Z,23.95
2022-08-19T02:49:27.455Z,19.83
2022-08-19T02:51:57.264Z,25.77
2022-08-19T02:54:29.734Z,27.45
2022-08-19T02:56:59.502Z,27.33
2022-08-19T02:59:29.371Z,23.77
2022-08-19T03:01:59.465Z,21.30
2022-08-19T03:04:30.608Z,21.95
2022-08-19T03:07:10.964Z,24.05
2022-08-19T03:09:43.882Z,22.67
2022-08-19T03:12:14.077Z,25.10
2022-08-19T03:14:43.957Z,24.92
2022-08-19T03:17:13.792Z,25.48
2022-08-19T03:19:44.122Z,24.77
2022-08-19T03:22:13.966Z,23.20
2022-08-19T03:24:46.783Z,26.27
2022-08-19T03:27:17.432Z,25.88
2022-08-19T03:29:47.485Z,28.58
2022-08-19T03:32:32.675Z,28.23
2022-08-19T03:35:03.525Z,25.17
2022-08-19T03:37:33.383Z,27.73
2022-08-19T03:40:06.763Z,28.55
2022-08-19T03:42:48.895Z,27.30
2022-08-19T03:45:19.554Z,26.17
2022-08-19T03:47:49.470Z,30.52
2022-08-19T03:50:20.157Z,26.52
2022-08-19T03:52:53.777Z,26.88
2022-08-19T03:55:26.344Z,27.40
2022-08-19T03:57:59.089Z,31.58
2022-08-19T04:00:29.232Z,25.85
2022-08-19T04:03:00.535Z,26.02
2022-08-19T04:05:32.101Z,27.70
2022-08-19T04:08:01.943Z,27.35
2022-08-19T04:10:34.415Z,27.90
2022-08-19T04:13:05.057Z,31.08
2022-08-19T04:15:40.411Z,28.48
2022-08-19T04:18:10.623Z,28.95
2022-08-19T04:20:49.704Z,29.02
2022-08-19T04:23:19.625Z,27.90
2022-08-19T04:25:52.476Z,28.88
2022-08-19T04:28:22.858Z,27.35
2022-08-19T04:30:59.546Z,27.67
2022-08-19T04:33:29.587Z,32.25
2022-08-19T04:35:59.757Z,27.65
2022-08-19T04:38:29.599Z,26.45
2022-08-19T04:41:14.488Z,30.00
2022-08-19T04:43:46.026Z,28.80
2022-08-19T04:46:39.261Z,28.50
2022-08-19T04:49:12.983Z,30.20
2022-08-19T04:51:45.692Z,27.33
2022-08-19T04:54:15.958Z,27.05
2022-08-19T04:57:07.069Z,28.13
2022-08-19T04:59:37.144Z,28.23
2022-08-19T05:02:07.616Z,26.85
2022-08-19T05:04:40.197Z,30.70
2022-08-19T05:07:10.865Z,28.23
2022-08-19T05:09:55.661Z,28.38
2022-08-19T05:12:31.318Z,27.80
2022-08-19T05:15:02.141Z,27.52
2022-08-19T05:17:36.296Z,31.52
2022-08-19T05:20:31.348Z,25.90
2022-08-19T05:23:01.327Z,27.42
2022-08-19T05:25:42.603Z,26.92
2022-08-19T05:28:16.816Z,25.95
2022-08-19T05:30:47.714Z,29.65
2022-08-19T05:33:17.816Z,29.23
2022-08-19T05:35:49.289Z,27.67
2022-08-19T05:38:19.600Z,31.52
2022-08-19T05:40:50.344Z,29.88
2022-08-19T05:43:22.761Z,28.40
2022-08-19T05:45:52.646Z,29.27
2022-08-19T05:48:22.901Z,26.60
2022-08-19T05:50:53.458Z,28.40
2022-08-19T05:53:23.332Z,24.75
2022-08-19T05:55:53.168Z,27.05
2022-08-19T05:58:28.056Z,25.42
2022-08-19T06:00:58.029Z,28.58
2022-08-19T06:03:28.236Z,30.88
2022-08-19T06:05:59.688Z,30.20
2022-08-19T06:08:33.722Z,29.83
2022-08-19T06:11:17.746Z,30.40
2022-08-19T06:13:59.712Z,28.17
2022-08-19T06:16:32.740Z,30.42
2022-08-19T06:19:04.521Z,32.38
2022-08-19T06:21:34.763Z,26.75
2022-08-19T06:24:04.696Z,29.55
2022-08-19T06:26:35.529Z,29.13
2022-08-19T06:29:09.118Z,28.17
2022-08-19T06:31:39.896Z,28.35
2022-08-19T06:34:09.956Z,30.95
2022-08-19T06:36:42.874Z,26.60
2022-08-19T06:39:14.794Z,27.60
2022-08-19T06:41:50.679Z,29.15
2022-08-19T06:44:27.515Z,26.42
2022-08-19T06:46:58.115Z,27.10
2022-08-19T06:49:31.951Z,26.48
2022-08-19T06:52:03.877Z,27.55
2022-08-19T06:54:37.722Z,28.10
2022-08-19T06:57:17.428Z,27.45
2022-08-19T06:59:49.918Z,29.95
2022-08-19T07:02:19.912Z,24.90
2022-08-19T07:04:52.626Z,25.73
2022-08-19T07:07:24.271Z,23.05
2022-08-19T07:09:58.575Z,25.50
2022-08-19T07:12:35.364Z,24.67
2022-08-19T07:15:10.882Z,25.80
2022-08-19T07:17:42.233Z,24.48
2022-08-19T07:20:13.731Z,23.92
2022-08-19T07:22:44.101Z,24.83
2022-08-19T07:25:14.251Z,25.85
2022-08-19T07:27:46.404Z,21.73
2022-08-19T07:30:21.171Z,24.65
2022-08-19T07:32:53.264Z,24.13
2022-08-19T07:35:23.139Z,23.33
2022-08-19T07:37:53.909Z,22.48
2022-08-19T07:40:24.417Z,22.15
2022-08-19T07:42:54.230Z,22.33
2022-08-19T07:45:27.642Z,21.83
2022-08-19T07:47:57.803Z,23.77
2022-08-19T07:50:27.756Z,23.50
2022-08-19T07:52:58.016Z,28.33
2022-08-19T07:55:41.364Z,23.33
2022-08-19T07:58:14.130Z,23.27
2022-08-19T08:00:48.687Z,22.02
2022-08-19T08:03:20.027Z,20.73
2022-08-19T08:06:02.867Z,22.05
2022-08-19T08:08:48.081Z,22.98
2022-08-19T08:11:21.082Z,23.70
2022-08-19T08:14:01.043Z,20.25
2022-08-19T08:16:39.483Z,20.80
2022-08-19T08:19:25.713Z,20.15
2022-08-19T08:21:57.636Z,18.90
2022-08-19T08:24:29.123Z,23.33
2022-08-19T08:26:59.872Z,29.63
2022-08-19T08:29:34.481Z,37.15
2022-08-19T08:32:13.969Z,21.20
2022-08-19T08:34:44.913Z,20.98
2022-08-19T08:37:17.443Z,20.70
2022-08-19T08:39:48.389Z,18.13
2022-08-19T08:42:22.983Z,23.05
2022-08-19T08:47:53.776Z,17.00
2022-08-19T08:50:29.655Z,19.48
2022-08-19T08:53:01.941Z,18.45
2022-08-19T08:55:36.831Z,20.38
2022-08-19T08:58:10.171Z,19.75
2022-08-19T09:00:44.238Z,20.27
2022-08-19T09:03:23.308Z,21.13
2022-08-19T09:06:03.666Z,16.92
2022-08-19T09:08:48.759Z,18.98
2022-08-19T09:11:42.984Z,18.27
2022-08-19T09:14:47.434Z,22.35
2022-08-19T09:17:13.729Z,18.23
2022-08-19T09:19:55.320Z,21.45
2022-08-19T09:22:27.692Z,17.08
2022-08-19T09:24:58.781Z,17.00
2022-08-19T09:27:41.731Z,18.00
2022-08-19T09:32:46.404Z,20.73
2022-08-19T09:35:19.129Z,17.25
2022-08-19T09:37:49.993Z,17.30
2022-08-19T09:40:30.381Z,16.95
2022-08-19T09:43:09.900Z,16.15
2022-08-19T09:45:40.124Z,14.43
2022-08-19T09:48:11.800Z,16.38
2022-08-19T09:50:52.346Z,17.23
2022-08-19T09:53:25.622Z,15.13
2022-08-19T09:55:55.751Z,23.50
2022-08-19T09:58:28.648Z,14.50
2022-08-19T10:00:59.369Z,15.20
2022-08-19T10:03:30.557Z,16.73
2022-08-19T10:06:05.439Z,15.68
2022-08-19T10:08:50.483Z,14.20
2022-08-19T10:11:28.435Z,15.38
2022-08-19T10:14:11.511Z,16.35
2022-08-19T10:16:42.612Z,17.08
2022-08-19T10:19:13.033Z,15.45
2022-08-19T10:21:46.304Z,20.05
2022-08-19T10:24:18.899Z,14.52
2022-08-19T10:26:57.214Z,15.93
2022-08-19T10:29:31.907Z,14.30
2022-08-19T10:32:03.919Z,13.60
2022-08-19T10:34:34.499Z,13.90
2022-08-19T10:37:10.733Z,13.35
2022-08-19T10:39:43.485Z,13.23
2022-08-19T10:42:14.689Z,10.43
2022-08-19T10:44:44.904Z,10.40
2022-08-19T10:47:17.610Z,13.18
2022-08-19T10:50:08.279Z,9.68
2022-08-19T10:52:49.445Z,9.32
2022-08-19T10:55:34.815Z,8.77
2022-08-19T10:58:04.844Z,23.65
2022-08-19T11:00:34.864Z,8.63
2022-08-19T11:03:04.682Z,10.35
2022-08-19T11:05:36.570Z,11.38
2022-08-19T11:08:21.221Z,10.50
2022-08-19T11:10:54.615Z,9.20
2022-08-19T11:13:25.631Z,11.93
2022-08-19T11:16:07.441Z,8.27
2022-08-19T11:18:39.997Z,10.65
2022-08-19T11:21:18.025Z,8.75
2022-08-19T11:23:52.543Z,12.93
2022-08-19T11:26:24.282Z,11.43
2022-08-19T11:28:55.521Z,10.57
2022-08-19T11:31:28.946Z,9.98
2022-08-19T11:34:00.847Z,8.60
2022-08-19T11:36:32.322Z,11.13
2022-08-19T11:39:06.258Z,8.40
2022-08-19T11:41:36.261Z,9.88
2022-08-19T11:44:07.679Z,10.43
2022-08-19T11:46:38.964Z,9.95
2022-08-19T11:49:13.779Z,12.82
2022-08-19T11:51:45.583Z,11.15
2022-08-19T11:54:19.690Z,8.95
2022-08-19T11:56:50.059Z,9.15
2022-08-19T11:59:19.969Z,11.13
2022-08-19T12:01:49.756Z,12.77
2022-08-19T12:04:19.640Z,10.82
2022-08-19T12:06:50.980Z,10.05
2022-08-19T12:09:23.412Z,10.05
2022-08-19T12:11:53.828Z,10.30
2022-08-19T12:14:24.089Z,9.07
2022-08-19T12:16:54.566Z,9.77
2022-08-19T12:19:25.590Z,9.75
2022-08-19T12:21:57.958Z,13.38
2022-08-19T12:24:30.589Z,9.23
2022-08-19T12:27:03.104Z,10.18
2022-08-19T12:29:34.736Z,10.57
2022-08-19T12:32:05.112Z,9.98
2022-08-19T12:34:38.120Z,8.98
2022-08-19T12:37:09.676Z,8.48
2022-08-19T12:39:45.176Z,7.80
2022-08-19T12:42:17.082Z,7.68
2022-08-19T12:44:47.614Z,7.63
2022-08-19T12:47:17.973Z,8.32
2022-08-19T12:49:55.207Z,10.38
2022-08-19T12:52:28.194Z,8.90
2022-08-19T12:55:01.499Z,9.50
2022-08-19T12:57:33.469Z,7.50
2022-08-19T13:00:07.812Z,7.50
2022-08-19T13:02:39.278Z,6.53
2022-08-19T13:05:12.412Z,6.95
2022-08-19T13:07:44.841Z,6.65
2022-08-19T13:10:21.452Z,7.70
2022-08-19T13:12:54.130Z,8.10
2022-08-19T13:15:26.088Z,6.55
2022-08-19T13:17:57.857Z,9.07
2022-08-19T13:20:28.828Z,7.18
2022-08-19T13:22:59.250Z,12.93
2022-08-19T13:25:31.650Z,6.75
2022-08-19T13:28:02.678Z,8.52
2022-08-19T13:30:44.993Z,8.43
2022-08-19T13:33:15.914Z,7.10
2022-08-19T13:35:48.767Z,7.05
2022-08-19T13:38:21.449Z,9.00
2022-08-19T13:40:56.189Z,9.10
2022-08-19T13:43:30.196Z,8.52
2022-08-19T13:46:01.001Z,10.80
2022-08-19T13:48:32.056Z,9.57
2022-08-19T13:51:02.067Z,12.20
2022-08-19T13:53:31.896Z,19.77
2022-08-19T13:56:04.424Z,13.05
2022-08-19T13:58:34.456Z,13.80
2022-08-19T14:01:04.374Z,17.00
2022-08-19T14:03:35.140Z,19.08
2022-08-19T14:06:05.393Z,19.85
2022-08-19T14:08:35.228Z,20.55
2022-08-19T14:11:07.741Z,23.25
2022-08-19T14:13:37.844Z,26.27
2022-08-19T14:16:12.195Z,24.80
2022-08-19T14:18:42.293Z,24.50
2022-08-19T14:21:19.088Z,26.27
2022-08-19T14:23:49.159Z,18.92
2022-08-19T14:26:22.895Z,19.67
2022-08-19T14:28:54.040Z,24.05
2022-08-19T14:31:28.994Z,22.95
2022-08-19T14:34:00.758Z,25.88
2022-08-19T14:36:31.407Z,27.13
2022-08-19T14:39:01.847Z,29.98
2022-08-19T14:41:34.786Z,28.85
2022-08-19T14:44:04.673Z,31.80
2022-08-19T14:46:34.556Z,23.13
2022-08-19T14:49:09.636Z,25.75
2022-08-19T14:51:39.874Z,22.48
2022-08-19T14:54:13.003Z,28.67
2022-08-19T14:56:45.568Z,22.20
2022-08-19T14:59:15.810Z,26.45
2022-08-19T15:01:45.782Z,29.17
2022-08-19T15:04:15.610Z,26.17
2022-08-19T15:06:45.566Z,27.40
2022-08-19T15:09:15.433Z,29.20
2022-08-19T15:11:48.097Z,28.98
2022-08-19T15:14:18.071Z,29.67
2022-08-19T15:16:47.921Z,26.63
2022-08-19T15:19:18.606Z,24.60
2022-08-19T15:21:48.514Z,20.58
2022-08-19T15:24:18.465Z,24.20
2022-08-19T15:26:50.927Z,25.08
2022-08-19T15:29:20.757Z,25.63
2022-08-19T15:31:56.081Z,26.00
2022-08-19T15:34:28.269Z,26.50
2022-08-19T15:36:59.095Z,24.38
2022-08-19T15:39:29.452Z,27.17
2022-08-19T15:42:04.087Z,25.52
2022-08-19T15:44:37.289Z,24.27
2022-08-19T15:47:07.411Z,23.75
2022-08-19T15:49:37.273Z,22.10
2022-08-19T15:52:07.986Z,26.25
2022-08-19T15:54:37.795Z,24.35
2022-08-19T15:57:22.831Z,22.85
2022-08-19T16:00:05.644Z,21.35
2022-08-19T16:02:48.286Z,22.10
2022-08-19T16:05:37.330Z,18.10
2022-08-19T16:08:09.830Z,22.38
2022-08-19T16:10:40.471Z,18.48
2022-08-19T16:13:13.321Z,21.70
2022-08-19T16:15:44.016Z,20.25
2022-08-19T16:18:13.861Z,21.98
2022-08-19T16:20:43.829Z,20.63
2022-08-19T16:23:14.177Z,18.70
2022-08-19T16:25:44.029Z,19.83
2022-08-19T16:28:16.477Z,23.75
2022-08-19T16:30:48.635Z,21.40
2022-08-19T16:33:22.987Z,21.38
2022-08-19T16:36:07.107Z,17.60
2022-08-19T16:38:38.032Z,20.58
2022-08-19T16:41:08.631Z,19.58
2022-08-19T16:43:41.078Z,17.98
2022-08-19T16:46:11.793Z,19.40
2022-08-19T16:48:46.305Z,18.65
2022-08-19T16:51:17.190Z,17.67
2022-08-19T16:53:47.824Z,19.15
2022-08-19T16:56:17.949Z,20.48
2022-08-19T16:58:50.626Z,21.15
2022-08-19T17:01:21.622Z,22.38
2022-08-19T17:03:53.022Z,20.45
2022-08-19T17:06:26.076Z,20.23
2022-08-19T17:08:58.837Z,21.10
2022-08-19T17:11:31.218Z,21.25
2022-08-19T17:14:04.420Z,27.80
2022-08-19T17:16:36.222Z,22.00
2022-08-19T17:19:09.038Z,22.73
2022-08-19T17:21:40.651Z,24.17
2022-08-19T17:24:11.081Z,23.42
2022-08-19T17:26:41.613Z,24.42
2022-08-19T17:29:14.208Z,22.45
2022-08-19T17:31:44.069Z,22.45
2022-08-19T17:34:13.861Z,21.60
2022-08-19T17:36:43.877Z,20.65
2022-08-19T17:39:14.010Z,20.70
2022-08-19T17:41:44.167Z,21.52
2022-08-19T17:44:19.294Z,19.92
2022-08-19T17:46:49.177Z,21.73
2022-08-19T17:49:19.891Z,21.23
2022-08-19T17:51:52.288Z,20.40
2022-08-19T17:54:22.837Z,22.15
2022-08-19T17:56:52.773Z,23.73
2022-08-19T17:59:27.939Z,21.58
2022-08-19T18:02:00.648Z,22.92
2022-08-19T18:04:30.787Z,24.77
2022-08-19T18:07:01.047Z,22.67
2022-08-19T18:09:41.807Z,21.08
2022-08-19T18:12:16.349Z,21.75
2022-08-19T18:14:48.813Z,21.75
2022-08-19T18:17:22.969Z,22.10
2022-08-19T18:22:29.543Z,23.10
2022-08-19T18:25:00.685Z,24.00
2022-08-19T18:27:30.953Z,22.17
2022-08-19T18:30:03.455Z,23.95
2022-08-19T18:32:35.112Z,22.98
2022-08-19T18:35:09.936Z,24.52
2022-08-19T18:37:40.012Z,24.23
2022-08-19T18:40:26.529Z,21.98
2022-08-19T18:43:17.495Z,25.73
2022-08-19T18:46:02.591Z,25.17
2022-08-19T18:48:45.139Z,25.77
2022-08-19T18:51:16.263Z,27.33
2022-08-19T18:53:47.941Z,23.38
2022-08-19T18:56:20.490Z,25.88
2022-08-19T18:58:50.416Z,23.50
2022-08-19T19:01:27.839Z,23.65
2022-08-19T19:04:01.211Z,25.17
2022-08-19T19:06:35.827Z,25.30
2022-08-19T19:09:06.214Z,22.85
2022-08-19T19:11:38.711Z,23.40
2022-08-19T19:14:23.221Z,22.23
2022-08-19T19:17:07.757Z,22.88
2022-08-19T19:19:42.610Z,23.45
2022-08-19T19:22:14.938Z,24.38
2022-08-19T19:24:46.513Z,20.65
2022-08-19T19:27:20.302Z,22.52
2022-08-19T19:29:52.310Z,30.27
2022-08-19T19:32:28.445Z,21.63
2022-08-19T19:34:59.573Z,24.05
2022-08-19T19:37:29.487Z,22.55
2022-08-19T19:39:59.479Z,21.58
2022-08-19T19:42:29.383Z,20.02
2022-08-19T19:45:01.458Z,19.52
2022-08-19T19:47:33.845Z,17.80
2022-08-19T19:50:14.244Z,17.42
2022-08-19T19:52:47.318Z,18.40
2022-08-19T19:55:20.763Z,18.42
2022-08-19T19:57:53.537Z,17.88
2022-08-19T20:00:25.320Z,16.92
2022-08-19T20:02:57.774Z,15.45
2022-08-19T20:05:28.513Z,15.15
2022-08-19T20:08:11.457Z,15.18
2022-08-19T20:10:42.250Z,15.23
2022-08-19T20:13:15.429Z,16.23
2022-08-19T20:15:46.373Z,15.15
2022-08-19T20:18:18.799Z,15.25
2022-08-19T20:20:50.916Z,14.80
2022-08-19T20:23:21.659Z,14.68
2022-08-19T20:25:52.619Z,13.70
2022-08-19T20:28:23.238Z,15.50
2022-08-19T20:30:53.307Z,14.32
2022-08-19T20:33:25.730Z,13.23
2022-08-19T20:35:55.823Z,13.48
2022-08-19T20:38:26.118Z,13.43
2022-08-19T20:40:55.970Z,13.95
2022-08-19T20:43:25.849Z,11.35
2022-08-19T20:45:56.584Z,12.65
2022-08-19T20:48:29.015Z,11.77
2022-08-19T20:50:59.030Z,13.18
2022-08-19T20:53:29.039Z,8.27
2022-08-19T20:55:59.937Z,7.30
2022-08-19T20:58:30.339Z,5.70
2022-08-19T21:01:02.889Z,8.48
2022-08-19T21:03:42.443Z,5.50
2022-08-19T21:06:14.379Z,5.10
2022-08-19T21:08:44.226Z,4.68
2022-08-19T21:11:15.171Z,4.40
2022-08-19T21:13:50.500Z,4.30
2022-08-19T21:16:20.380Z,5.47
2022-08-19T21:18:52.827Z,4.25
2022-08-19T21:21:22.666Z,3.75
2022-08-19T21:23:52.925Z,4.45
2022-08-19T21:26:22.736Z,7.93
2022-08-19T21:28:52.753Z,3.13
2022-08-19T21:31:22.742Z,3.90
2022-08-19T21:33:55.502Z,5.70
2022-08-19T21:36:25.325Z,5.10
2022-08-19T21:38:55.151Z,3.17
2022-08-19T21:41:25.031Z,2.90
2022-08-19T21:43:54.958Z,5.18
2022-08-19T21:46:25.121Z,2.63
2022-08-19T21:48:57.594Z,2.47
2022-08-19T21:51:27.461Z,3.15
2022-08-19T21:53:57.508Z,2.80
2022-08-19T21:56:27.381Z,1.92
2022-08-19T21:58:58.089Z,2.10
2022-08-19T22:01:28.048Z,2.67
2022-08-19T22:04:00.569Z,4.50
2022-08-19T22:06:30.489Z,2.97
2022-08-19T22:09:00.295Z,3.20
2022-08-19T22:11:30.921Z,3.88
2022-08-19T22:14:01.391Z,3.13
2022-08-19T22:16:34.195Z,2.67
2022-08-19T22:19:08.002Z,5.80
2022-08-19T22:21:40.060Z,2.05
2022-08-19T22:24:11.450Z,3.15
2022-08-19T22:26:41.315Z,3.88
2022-08-19T22:29:15.709Z,2.70
2022-08-19T22:31:54.328Z,3.58
2022-08-19T22:34:30.499Z,3.75
2022-08-19T22:37:00.313Z,3.42
2022-08-19T22:39:30.204Z,4.00
2022-08-19T22:42:00.000Z,2.42
2022-08-19T22:44:30.335Z,2.90
2022-08-19T22:47:00.138Z,3.05
2022-08-19T22:49:32.572Z,2.35
2022-08-19T22:52:18.138Z,3.75
2022-08-19T22:54:49.912Z,2.13
2022-08-19T22:57:20.915Z,2.20
2022-08-19T22:59:51.795Z,2.25
2022-08-19T23:02:23.327Z,4.55
2022-08-19T23:04:56.611Z,2.92
2022-08-19T23:07:26.573Z,8.50
2022-08-19T23:09:56.507Z,2.92
2022-08-19T23:12:31.360Z,2.42
2022-08-19T23:15:04.906Z,3.75
2022-08-19T23:17:35.289Z,3.30
2022-08-19T23:20:09.105Z,2.25
2022-08-19T23:22:41.705Z,5.35
2022-08-19T23:25:16.087Z,2.92
2022-08-19T23:27:58.520Z,2.47
2022-08-19T23:30:28.446Z,2.70
2022-08-19T23:33:00.913Z,3.75
2022-08-19T23:35:36.434Z,2.33
2022-08-19T23:38:07.938Z,2.33
2022-08-19T23:40:39.231Z,4.38
2022-08-19T23:43:10.327Z,3.53
2022-08-19T23:45:50.916Z,4.13
2022-08-19T23:48:21.515Z,1.35
2022-08-19T23:50:56.549Z,1.40
2022-08-19T23:53:26.925Z,1.40
2022-08-19T23:55:57.361Z,2.20
2022-08-19T23:58:27.781Z,1.80
